Time;durP1;ratioP1;P1;durP2;ratioP2;P2;SDS_P1;SDS_P2;PMS_P1;PMS_P2;Temp;Humidity;BMP_temperature;BMP_pressure;BME280_temperature;BME280_humidity;BME280_pressure;Samples;Min_cycle;Max_cycle;Signal;HPM_P1;HPM_P2
2023/10/29 00:02:06;;;;;;;17.20;5.03;;;20.00;99.90;;;;;;4993573;28;20100;-75
2023/10/29 00:04:35;;;;;;;14.52;4.95;;;19.90;99.90;;;;;;4992756;28;20132;-74
2023/10/29 00:07:04;;;;;;;16.17;4.63;;;19.90;99.90;;;;;;4992973;28;20072;-74
2023/10/29 00:09:31;;;;;;;16.05;4.70;;;19.90;99.90;;;;;;4993150;28;20379;-74
2023/10/29 00:11:57;;;;;;;15.63;4.05;;;19.90;99.90;;;;;;4993287;28;20061;-75
2023/10/29 00:14:24;;;;;;;14.80;4.32;;;19.90;99.90;;;;;;4993446;28;20030;-74
2023/10/29 00:16:50;;;;;;;12.60;3.90;;;19.90;99.90;;;;;;4993453;28;20439;-73
2023/10/29 00:19:16;;;;;;;15.20;4.32;;;19.90;99.90;;;;;;4993218;28;20486;-73
2023/10/29 00:21:42;;;;;;;14.95;4.10;;;19.90;99.90;;;;;;4992891;28;20052;-73
2023/10/29 00:24:09;;;;;;;14.13;3.63;;;19.90;99.90;;;;;;4992985;28;20049;-73
2023/10/29 00:26:35;;;;;;;16.58;3.40;;;19.90;99.90;;;;;;4992726;28;20154;-73
2023/10/29 00:29:01;;;;;;;17.98;3.70;;;19.90;99.90;;;;;;4993218;28;20142;-74
2023/10/29 00:31:27;;;;;;;15.05;3.60;;;19.90;99.90;;;;;;4993357;28;20050;-74
2023/10/29 00:33:53;;;;;;;11.23;3.47;;;19.90;99.90;;;;;;4993004;28;20035;-74
2023/10/29 00:36:19;;;;;;;10.68;3.38;;;20.00;99.90;;;;;;4992733;28;20168;-74
2023/10/29 00:38:45;;;;;;;14.55;3.95;;;20.00;99.90;;;;;;4993173;28;20205;-71
2023/10/29 00:41:11;;;;;;;14.82;3.60;;;20.00;99.90;;;;;;4992673;28;20037;-74
2023/10/29 00:43:40;;;;;;;14.88;3.60;;;20.00;99.90;;;;;;4992650;28;20029;-74
2023/10/29 00:46:07;;;;;;;16.90;3.85;;;20.00;99.90;;;;;;4993159;28;20034;-74
2023/10/29 00:48:33;;;;;;;17.33;3.80;;;19.90;99.90;;;;;;4992724;28;20097;-74
2023/10/29 00:51:00;;;;;;;8.82;2.70;;;19.90;99.90;;;;;;4992688;28;20102;-74
2023/10/29 00:53:26;;;;;;;14.55;2.70;;;19.90;99.90;;;;;;4992462;28;20172;-74
2023/10/29 00:55:54;;;;;;;8.95;2.20;;;19.90;99.90;;;;;;4992553;28;20034;-75
2023/10/29 00:58:23;;;;;;;7.50;2.10;;;20.00;99.90;;;;;;4992820;28;20126;-74
2023/10/29 01:00:49;;;;;;;9.63;2.42;;;20.10;99.90;;;;;;4992543;28;20022;-74
2023/10/29 01:03:18;;;;;;;9.80;3.00;;;20.10;99.90;;;;;;4992472;28;20093;-75
2023/10/29 01:05:48;;;;;;;12.40;3.22;;;20.10;99.90;;;;;;4992479;28;20034;-73
2023/10/29 01:08:15;;;;;;;10.05;3.33;;;20.00;99.90;;;;;;4992729;28;20084;-74
2023/10/29 01:10:41;;;;;;;13.20;3.20;;;19.90;99.90;;;;;;4992279;28;20506;-73
2023/10/29 01:13:07;;;;;;;11.95;3.10;;;19.80;99.90;;;;;;4990726;28;20038;-74
2023/10/29 01:15:34;;;;;;;12.38;3.30;;;19.80;99.90;;;;;;4992557;28;20022;-74
2023/10/29 01:18:00;;;;;;;16.20;3.58;;;19.80;99.90;;;;;;4992390;28;20109;-74
2023/10/29 01:20:26;;;;;;;21.45;3.85;;;19.80;99.90;;;;;;4992348;28;20094;-74
2023/10/29 01:22:52;;;;;;;14.60;4.40;;;19.80;99.90;;;;;;4992149;28;20118;-74
2023/10/29 01:25:18;;;;;;;15.70;3.80;;;19.70;99.90;;;;;;4992466;28;20037;-74
2023/10/29 01:27:44;;;;;;;10.70;3.33;;;19.70;99.90;;;;;;4974394;28;20027;-75
2023/10/29 01:30:11;;;;;;;13.85;3.50;;;19.70;99.90;;;;;;4992027;28;20026;-74
2023/10/29 01:32:40;;;;;;;10.77;2.58;;;19.70;99.90;;;;;;4992294;28;20022;-74
2023/10/29 01:35:07;;;;;;;10.77;3.15;;;19.80;99.90;;;;;;4991894;28;20046;-73
2023/10/29 01:37:33;;;;;;;11.30;2.92;;;19.90;99.90;;;;;;4991837;28;20121;-73
2023/10/29 01:39:59;;;;;;;14.32;3.22;;;19.90;99.90;;;;;;4992366;28;20037;-74
2023/10/29 01:42:26;;;;;;;11.43;2.72;;;20.00;99.90;;;;;;4974157;28;20084;-74
2023/10/29 01:44:52;;;;;;;10.63;3.00;;;20.00;99.90;;;;;;4991898;28;20030;-74
2023/10/29 01:47:18;;;;;;;11.57;2.90;;;20.00;99.90;;;;;;4991888;28;20030;-75
2023/10/29 01:49:44;;;;;;;11.60;2.50;;;20.10;99.90;;;;;;4992070;28;20098;-73
2023/10/29 01:52:10;;;;;;;14.77;3.13;;;20.10;99.90;;;;;;4991832;28;20019;-73
2023/10/29 01:54:36;;;;;;;10.32;2.20;;;20.00;99.90;;;;;;4994409;28;20041;-73
2023/10/29 01:57:03;;;;;;;11.60;2.40;;;20.00;99.90;;;;;;4995926;28;20109;-76
2023/10/29 01:59:30;;;;;;;9.52;2.20;;;19.90;99.90;;;;;;4995918;28;20042;-75
2023/10/29 02:01:56;;;;;;;12.48;2.28;;;19.90;99.90;;;;;;4995948;28;20331;-72
2023/10/29 02:04:26;;;;;;;10.18;2.00;;;20.00;99.90;;;;;;4995526;28;20189;-74
2023/10/29 02:06:56;;;;;;;7.95;1.95;;;20.00;99.90;;;;;;4995737;28;20023;-75
2023/10/29 02:09:22;;;;;;;11.50;2.65;;;19.90;99.90;;;;;;4995577;28;20037;-74
2023/10/29 02:11:49;;;;;;;12.75;2.40;;;19.90;99.90;;;;;;4995688;28;20029;-74
2023/10/29 02:14:15;;;;;;;8.25;2.03;;;19.90;99.90;;;;;;4995711;28;20390;-75
2023/10/29 02:16:42;;;;;;;9.73;2.45;;;19.90;99.90;;;;;;4995586;28;20455;-75
2023/10/29 02:19:08;;;;;;;7.97;2.00;;;19.80;99.90;;;;;;4995378;28;20019;-73
2023/10/29 02:21:37;;;;;;;8.60;2.03;;;20.00;99.90;;;;;;4995267;28;20065;-74
2023/10/29 02:24:03;;;;;;;9.90;2.25;;;20.00;99.90;;;;;;4995302;28;20030;-73
2023/10/29 02:26:29;;;;;;;8.43;2.33;;;20.00;99.90;;;;;;4995312;28;20100;-74
2023/10/29 02:28:56;;;;;;;5.95;1.92;;;20.00;99.90;;;;;;4995401;28;20062;-74
2023/10/29 02:31:22;;;;;;;8.05;2.00;;;20.00;99.90;;;;;;4995161;28;20042;-73
2023/10/29 02:33:48;;;;;;;9.02;1.98;;;20.00;99.90;;;;;;4995412;28;20376;-73
2023/10/29 02:36:14;;;;;;;9.70;2.65;;;20.00;99.90;;;;;;4995010;28;20030;-73
2023/10/29 02:38:42;;;;;;;9.07;2.50;;;20.00;99.90;;;;;;4995300;28;20033;-73
2023/10/29 02:41:09;;;;;;;8.65;1.75;;;19.90;99.90;;;;;;4995151;28;20090;-73
2023/10/29 02:43:38;;;;;;;13.13;2.35;;;19.90;99.90;;;;;;4994968;28;20033;-75
2023/10/29 02:46:04;;;;;;;7.22;1.90;;;19.90;99.90;;;;;;4994893;28;20033;-72
2023/10/29 02:48:30;;;;;;;10.80;2.30;;;19.80;99.90;;;;;;4977443;28;20380;-73
2023/10/29 02:50:56;;;;;;;12.65;2.50;;;19.90;99.90;;;;;;4994613;28;20526;-74
2023/10/29 02:53:22;;;;;;;10.07;2.58;;;19.80;99.90;;;;;;4995091;28;20035;-73
2023/10/29 02:55:48;;;;;;;11.40;2.63;;;19.70;99.90;;;;;;4994889;28;20478;-73
2023/10/29 02:58:15;;;;;;;9.20;2.00;;;19.70;99.90;;;;;;4994733;28;20418;-74
2023/10/29 03:00:41;;;;;;;11.73;2.25;;;19.80;99.90;;;;;;4993216;28;20065;-74
2023/10/29 03:03:07;;;;;;;8.65;2.10;;;19.80;99.90;;;;;;4994661;28;20026;-75
2023/10/29 03:05:34;;;;;;;6.93;2.10;;;19.70;99.90;;;;;;4994983;28;20030;-74
2023/10/29 03:08:00;;;;;;;13.50;2.22;;;19.70;99.90;;;;;;4994452;28;20026;-73
2023/10/29 03:10:27;;;;;;;7.70;2.20;;;19.70;99.90;;;;;;4976822;28;20435;-73
2023/10/29 03:12:53;;;;;;;8.35;2.15;;;19.70;99.90;;;;;;4994734;28;20038;-73
2023/10/29 03:15:19;;;;;;;17.08;2.60;;;19.70;99.90;;;;;;4976866;28;20026;-74
2023/10/29 03:17:45;;;;;;;13.88;2.42;;;19.60;99.90;;;;;;4994329;28;20431;-73
2023/10/29 03:20:11;;;;;;;12.10;2.83;;;19.60;99.90;;;;;;4993185;28;20416;-74
2023/10/29 03:22:37;;;;;;;11.38;2.40;;;19.50;99.90;;;;;;4986592;28;20026;-74
2023/10/29 03:25:04;;;;;;;14.25;2.45;;;19.50;99.90;;;;;;4994200;28;20030;-73
2023/10/29 03:27:30;;;;;;;11.60;2.60;;;19.50;99.90;;;;;;4976899;28;20030;-73
2023/10/29 03:30:00;;;;;;;12.73;2.60;;;19.50;99.90;;;;;;4996655;28;20030;-71
2023/10/29 03:32:26;;;;;;;11.65;2.67;;;19.50;99.90;;;;;;4994335;28;20054;-72
2023/10/29 03:34:52;;;;;;;10.38;2.88;;;19.50;99.90;;;;;;4994064;28;20105;-73
2023/10/29 03:37:18;;;;;;;12.32;2.50;;;19.50;99.90;;;;;;4993905;28;20033;-71
2023/10/29 03:39:45;;;;;;;9.32;2.40;;;19.50;99.90;;;;;;4990859;28;20026;-70
2023/10/29 03:42:11;;;;;;;10.23;2.25;;;19.50;99.90;;;;;;4993150;28;20544;-71
2023/10/29 03:44:37;;;;;;;;;;;19.40;99.90;;;;;;4998651;28;20026;-70
2023/10/29 03:47:04;;;;;;;11.43;2.65;;;19.40;99.90;;;;;;5001341;28;19911;-70
2023/10/29 03:49:30;;;;;;;11.20;2.55;;;19.40;99.90;;;;;;4997474;28;20054;-73
2023/10/29 03:51:56;;;;;;;8.73;2.45;;;19.40;99.90;;;;;;4980652;28;20085;-73
2023/10/29 03:54:22;;;;;;;16.10;3.10;;;19.40;99.90;;;;;;4994151;28;20069;-73
2023/10/29 03:56:48;;;;;;;9.13;2.40;;;19.40;99.90;;;;;;5001628;28;20064;-72
2023/10/29 03:59:14;;;;;;;11.85;2.38;;;19.30;99.90;;;;;;5002208;28;20022;-73
2023/10/29 04:01:40;;;;;;;9.63;2.55;;;19.30;99.90;;;;;;4997618;28;20121;-73
2023/10/29 04:04:08;;;;;;;8.98;2.58;;;19.30;99.90;;;;;;4999080;28;20129;-72
2023/10/29 04:06:34;;;;;;;13.50;2.72;;;19.30;99.90;;;;;;4997009;28;20028;-72
2023/10/29 04:09:00;;;;;;;9.57;2.60;;;19.40;99.90;;;;;;4998021;28;20040;-73
2023/10/29 04:11:26;;;;;;;13.63;2.53;;;19.40;99.90;;;;;;4998877;28;20026;-73
2023/10/29 04:13:52;;;;;;;12.02;2.85;;;19.50;99.90;;;;;;4993324;28;20427;-73
2023/10/29 04:16:18;;;;;;;10.95;2.50;;;19.40;99.90;;;;;;4992699;28;20470;-74
2023/10/29 04:18:44;;;;;;;14.27;2.75;;;19.40;99.90;;;;;;4993122;28;20387;-74
2023/10/29 04:21:10;;;;;;;17.67;2.85;;;19.30;99.90;;;;;;4993122;28;20097;-73
2023/10/29 04:23:36;;;;;;;10.50;2.53;;;19.30;99.90;;;;;;4993258;28;20096;-73
2023/10/29 04:26:03;;;;;;;11.10;2.55;;;19.20;99.90;;;;;;4993535;28;20473;-73
2023/10/29 04:28:29;;;;;;;11.30;2.60;;;19.20;99.90;;;;;;4993377;28;20022;-74
2023/10/29 04:30:55;;;;;;;11.55;2.63;;;19.10;99.90;;;;;;4993201;28;20018;-72
2023/10/29 04:33:23;;;;;;;12.10;2.22;;;19.10;99.90;;;;;;4992802;28;20317;-74
2023/10/29 04:35:49;;;;;;;12.73;2.35;;;19.10;99.90;;;;;;4992728;28;20053;-72
2023/10/29 04:38:15;;;;;;;9.05;2.30;;;19.10;99.90;;;;;;4992907;28;20030;-73
2023/10/29 04:40:41;;;;;;;15.85;2.70;;;19.20;99.90;;;;;;4992790;28;20034;-73
2023/10/29 04:43:07;;;;;;;7.15;2.20;;;19.30;99.90;;;;;;4991132;28;20093;-73
2023/10/29 04:45:33;;;;;;;8.13;2.30;;;19.30;99.90;;;;;;4992922;28;20038;-72
2023/10/29 04:47:59;;;;;;;11.00;2.60;;;19.40;99.90;;;;;;4993084;28;20027;-72
2023/10/29 04:50:25;;;;;;;8.85;2.00;;;19.40;99.90;;;;;;4992914;28;20074;-73
2023/10/29 04:52:51;;;;;;;9.25;2.25;;;19.50;99.90;;;;;;4992496;28;20439;-74
2023/10/29 04:55:17;;;;;;;10.57;2.22;;;19.50;99.90;;;;;;4991290;28;20117;-72
2023/10/29 04:57:43;;;;;;;11.30;2.20;;;19.60;99.90;;;;;;4992599;28;20027;-73
2023/10/29 05:00:10;;;;;;;8.68;2.05;;;19.60;99.90;;;;;;4992954;28;20088;-73
2023/10/29 05:02:36;;;;;;;10.60;2.15;;;19.60;99.90;;;;;;4992351;28;20331;-73
2023/10/29 05:05:03;;;;;;;16.63;2.92;;;19.60;99.90;;;;;;4992471;28;20061;-73
2023/10/29 05:07:30;;;;;;;11.88;2.20;;;19.70;99.90;;;;;;4992201;28;20117;-73
2023/10/29 05:09:56;;;;;;;13.10;2.40;;;19.70;99.90;;;;;;4992741;28;20034;-73
2023/10/29 05:12:22;;;;;;;10.48;2.28;;;19.70;99.90;;;;;;4992265;28;20041;-72
2023/10/29 05:14:51;;;;;;;7.63;2.25;;;19.50;99.90;;;;;;4992565;28;20045;-73
2023/10/29 05:17:17;;;;;;;10.85;2.13;;;19.40;99.90;;;;;;4992176;28;20059;-73
2023/10/29 05:19:44;;;;;;;8.70;2.30;;;19.20;99.90;;;;;;4992108;28;20037;-72
2023/10/29 05:22:10;;;;;;;13.98;2.75;;;19.10;99.90;;;;;;4990564;28;20088;-73
2023/10/29 05:24:36;;;;;;;11.43;2.60;;;18.90;99.90;;;;;;4992618;28;20034;-74
2023/10/29 05:27:03;;;;;;;9.35;2.58;;;18.90;99.90;;;;;;4991667;28;20034;-73
2023/10/29 05:29:31;;;;;;;12.88;2.80;;;18.90;99.90;;;;;;4992433;28;20022;-72
2023/10/29 05:31:57;;;;;;;13.35;2.53;;;18.70;99.90;;;;;;4990531;28;20452;-73
2023/10/29 05:34:25;;;;;;;13.75;2.47;;;18.80;99.90;;;;;;4992097;28;20089;-72
2023/10/29 05:36:51;;;;;;;12.45;2.67;;;18.80;99.90;;;;;;4991927;28;20491;-72
2023/10/29 05:39:18;;;;;;;11.00;2.38;;;18.90;99.90;;;;;;4992375;28;20026;-73
2023/10/29 05:41:44;;;;;;;12.27;2.25;;;19.10;99.90;;;;;;4991917;28;20105;-72
2023/10/29 05:44:14;;;;;;;13.38;2.35;;;19.10;99.90;;;;;;4991850;28;20105;-72
2023/10/29 05:46:40;;;;;;;11.25;2.60;;;19.40;99.90;;;;;;4991857;28;20062;-74
2023/10/29 05:49:06;;;;;;;5.03;1.80;;;19.40;99.90;;;;;;4991969;28;20105;-73
2023/10/29 05:51:32;;;;;;;;;;;19.60;99.90;;;;;;4992030;28;20039;-73
2023/10/29 05:53:58;;;;;;;8.80;2.47;;;19.90;99.90;;;;;;4991900;28;19989;-71
2023/10/29 05:56:24;;;;;;;8.40;1.92;;;20.20;99.90;;;;;;4974133;28;20092;-73
2023/10/29 05:58:50;;;;;;;15.05;2.45;;;20.50;99.90;;;;;;4991785;28;20031;-74
2023/10/29 06:01:16;;;;;;;8.48;2.40;;;20.90;99.90;;;;;;4991959;28;20078;-75
2023/10/29 06:03:42;;;;;;;11.13;2.08;;;21.20;99.90;;;;;;4991655;28;20101;-71
2023/10/29 06:06:08;;;;;;;8.63;1.80;;;21.60;99.90;;;;;;4991619;28;20076;-78
2023/10/29 06:08:35;;;;;;;6.55;2.00;;;22.00;99.90;;;;;;4992047;28;20034;-77
2023/10/29 06:11:01;;;;;;;8.70;2.10;;;22.30;99.90;;;;;;4991701;28;20026;-78
2023/10/29 06:13:27;;;;;;;9.15;2.10;;;22.40;99.90;;;;;;4991790;28;20035;-78
2023/10/29 06:15:53;;;;;;;7.35;2.00;;;23.30;99.90;;;;;;4974103;28;20133;-78
2023/10/29 06:18:19;;;;;;;9.88;2.00;;;24.10;99.90;;;;;;4991795;28;20023;-77
2023/10/29 06:20:45;;;;;;;11.20;1.90;;;24.90;99.90;;;;;;4991623;28;20478;-79
2023/10/29 06:23:11;;;;;;;15.77;2.38;;;25.50;99.90;;;;;;4991627;28;20031;-77
2023/10/29 06:25:37;;;;;;;9.73;1.90;;;26.20;99.90;;;;;;4990533;28;20138;-78
2023/10/29 06:28:03;;;;;;;9.45;2.20;;;26.60;99.90;;;;;;4990327;28;20530;-78
2023/10/29 06:30:29;;;;;;;;;;;27.30;99.90;;;;;;4992331;28;20383;-79
2023/10/29 06:33:00;;;;;;;11.38;2.10;;;27.80;99.90;;;;;;4973949;28;20397;-76
2023/10/29 06:35:26;;;;;;;8.88;2.20;;;28.90;99.90;;;;;;4974055;28;20049;-78
2023/10/29 06:37:52;;;;;;;9.18;2.00;;;29.50;99.90;;;;;;4991590;28;20498;-78
2023/10/29 06:40:18;;;;;;;10.60;1.92;;;28.70;99.90;;;;;;4995057;28;20033;-78
2023/10/29 06:42:45;;;;;;;7.43;1.80;;;28.40;99.90;;;;;;4995354;28;20022;-79
2023/10/29 06:45:11;;;;;;;10.82;2.15;;;27.70;99.90;;;;;;4995009;28;20030;-79
2023/10/29 06:47:37;;;;;;;11.77;1.98;;;27.10;99.90;;;;;;4996190;28;20438;-78
2023/10/29 06:50:05;;;;;;;7.60;1.67;;;26.60;99.90;;;;;;4995837;28;20042;-78
2023/10/29 06:52:31;;;;;;;8.68;2.10;;;26.10;99.90;;;;;;4977691;28;20030;-79
2023/10/29 06:54:57;;;;;;;9.50;2.00;;;26.20;99.90;;;;;;4993723;28;20045;-80
2023/10/29 06:57:23;;;;;;;7.57;1.75;;;26.30;99.90;;;;;;4995429;28;20031;-79
2023/10/29 06:59:50;;;;;;;8.23;2.13;;;26.50;99.90;;;;;;4995535;28;20081;-81
2023/10/29 07:02:16;;;;;;;11.25;2.30;;;26.50;99.90;;;;;;4995306;28;20031;-79
2023/10/29 07:04:43;;;;;;;15.18;2.15;;;26.80;99.90;;;;;;4994987;28;20050;-80
2023/10/29 07:07:11;;;;;;;11.35;2.78;;;28.00;99.90;;;;;;4995045;28;20019;-78
2023/10/29 07:09:38;;;;;;;11.50;2.83;;;28.30;99.90;;;;;;4977501;28;20038;-76
2023/10/29 07:12:04;;;;;;;11.27;3.20;;;28.30;99.90;;;;;;4979697;28;20023;-79
2023/10/29 07:14:30;;;;;;;;;;;29.20;99.90;;;;;;4975826;28;20177;-78
2023/10/29 07:16:56;;;;;;;12.65;2.20;;;29.20;99.90;;;;;;4975264;28;19993;-76
2023/10/29 07:19:22;;;;;;;10.55;1.85;;;28.40;99.90;;;;;;4975508;28;20197;-79
2023/10/29 07:21:48;;;;;;;9.00;2.20;;;27.50;99.90;;;;;;4975276;28;20464;-79
2023/10/29 07:24:14;;;;;;;8.57;2.17;;;27.70;99.90;;;;;;4973955;28;20034;-79
2023/10/29 07:26:41;;;;;;;6.75;1.95;;;27.80;99.90;;;;;;4977010;28;20030;-79
2023/10/29 07:29:08;;;;;;;9.00;2.15;;;27.60;99.90;;;;;;4993215;28;20335;-79
2023/10/29 07:31:34;;;;;;;6.60;1.90;;;27.20;99.90;;;;;;4977070;28;20115;-78
2023/10/29 07:34:00;;;;;;;9.27;2.30;;;26.90;99.90;;;;;;4994490;28;20045;-78
2023/10/29 07:36:26;;;;;;;9.45;2.60;;;26.70;99.90;;;;;;4986806;28;20058;-73
2023/10/29 07:38:53;;;;;;;14.80;2.65;;;26.50;99.90;;;;;;4975471;28;20027;-74
2023/10/29 07:41:20;;;;;;;9.48;2.63;;;26.50;99.90;;;;;;4989305;28;20109;-74
2023/10/29 07:43:47;;;;;;;11.77;2.28;;;26.00;99.90;;;;;;4994238;28;20310;-73
2023/10/29 07:46:13;;;;;;;10.13;2.60;;;25.50;99.90;;;;;;4994331;28;20534;-75
2023/10/29 07:48:40;;;;;;;12.23;2.55;;;25.50;99.90;;;;;;4994948;28;20024;-74
2023/10/29 07:51:06;;;;;;;46.63;5.72;;;25.90;99.90;;;;;;4991939;28;20031;-74
2023/10/29 07:53:32;;;;;;;9.05;2.28;;;26.40;99.90;;;;;;4993869;28;20041;-75
2023/10/29 07:56:07;;;;;;;10.55;2.03;;;26.40;99.90;;;;;;4994559;28;20467;-75
2023/10/29 07:58:36;;;;;;;9.57;2.40;;;26.30;99.90;;;;;;4994027;28;20510;-74
2023/10/29 08:01:03;;;;;;;10.35;2.50;;;26.10;99.90;;;;;;4976646;28;20379;-74
2023/10/29 08:03:29;;;;;;;;;;;26.60;99.90;;;;;;4994517;28;20074;-74
2023/10/29 08:05:54;;;;;;;;;;;26.60;99.90;;;;;;4994834;28;20327;-73
2023/10/29 08:08:20;;;;;;;11.43;2.13;;;26.90;99.90;;;;;;4976188;28;20231;-74
2023/10/29 08:10:46;;;;;;;15.48;2.17;;;27.00;99.90;;;;;;4990017;28;20031;-75
2023/10/29 08:13:12;;;;;;;23.65;2.90;;;26.90;99.90;;;;;;4974052;28;20039;-72
2023/10/29 08:15:39;;;;;;;8.68;2.15;;;27.10;99.90;;;;;;4974538;28;20501;-74
2023/10/29 08:18:05;;;;;;;12.55;2.22;;;26.80;99.90;;;;;;4974361;28;20023;-79
2023/10/29 08:20:32;;;;;;;7.90;2.42;;;26.90;99.90;;;;;;4974356;28;20031;-79
2023/10/29 08:22:58;;;;;;;7.40;2.40;;;26.80;99.90;;;;;;4974198;28;20332;-80
2023/10/29 08:25:24;;;;;;;10.32;2.53;;;26.70;99.90;;;;;;4974235;28;20476;-78
2023/10/29 08:27:50;;;;;;;15.57;2.30;;;26.80;99.90;;;;;;4974697;28;20353;-80
2023/10/29 08:30:17;;;;;;;8.85;2.65;;;26.60;99.90;;;;;;4974658;28;20030;-80
2023/10/29 08:32:43;;;;;;;9.95;2.38;;;26.60;99.90;;;;;;4974097;28;20034;-79
2023/10/29 08:35:09;;;;;;;;;;;26.50;99.90;;;;;;4974472;28;20058;-80
2023/10/29 08:37:35;;;;;;;;;;;26.60;99.90;;;;;;4974164;28;20351;-80
2023/10/29 08:40:01;;;;;;;8.57;2.13;;;26.60;99.90;;;;;;4973991;28;20021;-79
2023/10/29 08:42:30;;;;;;;9.13;2.70;;;26.80;99.90;;;;;;4991580;28;20130;-80
2023/10/29 08:44:57;;;;;;;10.15;2.38;;;26.70;99.90;;;;;;4993453;28;20168;-80
2023/10/29 08:47:24;;;;;;;8.90;2.20;;;26.90;99.90;;;;;;4993366;28;20030;-80
2023/10/29 08:49:51;;;;;;;8.57;2.15;;;26.90;99.90;;;;;;4993091;28;20030;-78
2023/10/29 08:52:18;;;;;;;8.20;2.55;;;26.80;99.90;;;;;;4992868;28;20022;-81
2023/10/29 08:54:45;;;;;;;12.48;2.58;;;26.80;99.90;;;;;;4993254;28;20448;-76
2023/10/29 08:57:11;;;;;;;;;;;26.90;99.90;;;;;;4993604;28;20054;-80
2023/10/29 08:59:37;;;;;;;;;;;26.60;99.90;;;;;;4993221;28;19948;-79
2023/10/29 09:02:03;;;;;;;11.95;2.03;;;26.60;99.90;;;;;;4992998;28;19927;-78
2023/10/29 09:04:29;;;;;;;9.45;2.28;;;26.40;99.90;;;;;;4992410;28;20402;-77
2023/10/29 09:06:55;;;;;;;15.85;2.75;;;26.30;99.90;;;;;;4992667;28;20030;-77
2023/10/29 09:09:21;;;;;;;13.40;2.45;;;26.60;99.90;;;;;;4992741;28;20030;-78
2023/10/29 09:11:53;;;;;;;12.38;2.60;;;26.70;99.90;;;;;;4992687;28;20150;-79
2023/10/29 09:14:19;;;;;;;11.30;2.40;;;26.70;99.90;;;;;;4991387;28;20038;-77
2023/10/29 09:16:47;;;;;;;6.13;2.13;;;26.60;99.90;;;;;;4993221;28;20022;-77
2023/10/29 09:19:17;;;;;;;12.80;2.35;;;26.80;99.90;;;;;;4993336;28;20034;-77
2023/10/29 09:21:44;;;;;;;9.75;1.80;;;26.80;99.90;;;;;;4993091;28;20061;-78
2023/10/29 09:24:11;;;;;;;10.38;2.17;;;27.00;99.90;;;;;;4993719;28;20030;-77
2023/10/29 09:26:37;;;;;;;;;;;27.00;99.90;;;;;;4993735;28;20068;-78
2023/10/29 09:29:03;;;;;;;15.90;2.53;;;26.90;99.90;;;;;;4993620;28;20000;-79
2023/10/29 09:31:29;;;;;;;;;;;26.90;99.90;;;;;;4992171;28;20030;-79
2023/10/29 09:33:55;;;;;;;;;;;27.00;99.90;;;;;;4993936;28;20338;-77
2023/10/29 09:36:22;;;;;;;16.05;2.30;;;26.80;99.90;;;;;;4975578;28;19905;-78
2023/10/29 09:38:49;;;;;;;7.13;2.35;;;26.70;99.90;;;;;;4975398;28;20026;-79
2023/10/29 09:41:18;;;;;;;10.32;2.45;;;26.80;99.90;;;;;;4993127;28;20147;-79
2023/10/29 09:43:46;;;;;;;11.73;2.50;;;27.00;99.90;;;;;;4993112;28;20026;-78
2023/10/29 09:46:13;;;;;;;11.38;2.40;;;27.10;99.90;;;;;;4993550;28;20117;-80
2023/10/29 09:48:43;;;;;;;9.30;2.45;;;27.00;99.90;;;;;;4996761;28;20055;-79
2023/10/29 09:51:10;;;;;;;9.00;2.65;;;26.90;99.90;;;;;;4992925;28;20022;-80
2023/10/29 09:53:37;;;;;;;14.13;2.92;;;27.10;99.90;;;;;;4992964;28;20092;-81
2023/10/29 09:56:09;;;;;;;11.90;2.90;;;26.90;99.90;;;;;;4992660;28;20030;-76
2023/10/29 09:58:38;;;;;;;12.55;2.90;;;26.90;99.90;;;;;;4993039;28;20034;-75
2023/10/29 10:01:05;;;;;;;12.05;2.80;;;26.60;99.90;;;;;;4992349;28;20479;-76
2023/10/29 10:03:31;;;;;;;;;;;26.40;99.90;;;;;;4992702;28;20121;-78
2023/10/29 10:05:58;;;;;;;11.13;2.78;;;26.30;99.90;;;;;;4993070;28;20279;-78
2023/10/29 10:08:29;;;;;;;17.15;3.15;;;26.60;99.90;;;;;;4992398;28;20034;-79
2023/10/29 10:10:56;;;;;;;12.23;3.00;;;26.50;99.90;;;;;;4992685;28;20053;-80
2023/10/29 10:13:41;;;;;;;9.50;2.30;;;26.50;99.90;;;;;;4991535;28;20033;-81
2023/10/29 10:16:14;;;;;;;8.95;2.60;;;26.60;99.90;;;;;;4997029;28;20019;-80
2023/10/29 10:18:59;;;;;;;9.30;2.40;;;27.00;99.90;;;;;;4996928;28;20028;-82
2023/10/29 10:21:42;;;;;;;12.02;2.45;;;27.10;99.90;;;;;;4996700;28;20084;-82
2023/10/29 10:24:08;;;;;;;11.77;2.78;;;26.80;99.90;;;;;;4980066;28;20050;-81
2023/10/29 10:26:35;;;;;;;;;;;26.80;99.90;;;;;;4997818;28;20109;-81
2023/10/29 10:29:04;;;;;;;13.38;2.53;;;27.00;99.90;;;;;;4987727;28;20017;-81
2023/10/29 10:31:35;;;;;;;10.32;2.63;;;27.10;99.90;;;;;;4986808;28;20030;-81
2023/10/29 10:34:16;;;;;;;11.65;2.88;;;27.10;99.90;;;;;;4976891;28;20542;-82
2023/10/29 10:36:49;;;;;;;15.00;2.42;;;26.70;99.90;;;;;;4976919;28;20050;-82
2023/10/29 10:39:22;;;;;;;12.18;2.63;;;26.90;99.90;;;;;;4976252;28;20119;-83
2023/10/29 10:41:49;;;;;;;10.90;2.15;;;26.90;99.90;;;;;;4988838;28;20022;-85
2023/10/29 10:44:18;;;;;;;10.93;2.20;;;27.10;99.90;;;;;;4996236;28;20110;-82
2023/10/29 10:46:52;;;;;;;9.07;2.35;;;27.30;99.90;;;;;;4995864;28;20026;-82
2023/10/29 10:49:20;;;;;;;6.93;2.05;;;27.30;99.90;;;;;;4995591;28;20030;-84
2023/10/29 10:51:52;;;;;;;13.05;2.08;;;26.90;99.90;;;;;;4995852;28;20039;-84
2023/10/29 10:54:19;;;;;;;11.10;2.13;;;27.00;99.90;;;;;;4996246;28;20026;-84
2023/10/29 10:56:46;;;;;;;10.35;2.40;;;27.30;99.90;;;;;;4995475;28;20030;-84
2023/10/29 10:59:13;;;;;;;17.67;2.33;;;27.40;99.90;;;;;;4994107;28;20160;-84
2023/10/29 11:01:40;;;;;;;6.97;1.80;;;27.40;99.90;;;;;;4995430;28;20018;-76
2023/10/29 11:04:08;;;;;;;7.43;1.70;;;27.40;99.90;;;;;;4995174;28;20046;-78
2023/10/29 11:06:36;;;;;;;7.28;2.03;;;27.50;99.90;;;;;;4995344;28;20030;-77
2023/10/29 11:09:05;;;;;;;11.70;2.30;;;27.30;99.90;;;;;;4995085;28;20018;-77
2023/10/29 11:11:38;;;;;;;10.27;2.38;;;27.50;99.90;;;;;;4995144;28;20046;-77
2023/10/29 11:14:12;;;;;;;14.13;2.42;;;27.40;99.90;;;;;;4995146;28;20042;-77
2023/10/29 11:16:52;;;;;;;18.92;2.50;;;27.40;99.90;;;;;;4995128;28;20018;-78
2023/10/29 11:19:35;;;;;;;11.82;2.00;;;27.50;99.90;;;;;;4995344;28;20018;-77
2023/10/29 11:22:31;;;;;;;13.23;2.35;;;27.50;99.90;;;;;;4994726;28;20034;-77
2023/10/29 11:25:08;;;;;;;15.27;2.67;;;27.30;99.90;;;;;;4984943;28;20065;-77
2023/10/29 11:27:40;;;;;;;8.27;2.13;;;27.30;99.90;;;;;;4975488;28;20134;-75
2023/10/29 11:30:22;;;;;;;10.50;2.13;;;26.90;99.90;;;;;;4994325;28;20455;-77
2023/10/29 11:33:09;;;;;;;9.30;2.28;;;27.30;99.90;;;;;;4995008;28;20022;-79
2023/10/29 11:35:36;;;;;;;7.13;1.95;;;27.40;99.90;;;;;;4995442;28;20070;-77
2023/10/29 11:38:37;;;;;;;10.68;1.90;;;27.10;99.90;;;;;;4994513;28;20550;-78
2023/10/29 11:41:34;;;;;;;13.88;2.05;;;27.30;99.90;;;;;;4994793;28;20080;-78
2023/10/29 11:44:22;;;;;;;13.98;2.30;;;27.50;99.90;;;;;;4989023;28;20045;-78
2023/10/29 11:47:03;;;;;;;10.27;1.95;;;27.50;99.90;;;;;;4994716;28;20057;-78
2023/10/29 11:49:50;;;;;;;8.93;1.92;;;27.40;99.90;;;;;;4994762;28;20408;-78
2023/10/29 11:52:17;;;;;;;9.35;2.08;;;27.40;99.90;;;;;;4994665;28;20471;-78
2023/10/29 11:54:43;;;;;;;9.52;2.35;;;27.30;99.90;;;;;;4994687;28;20045;-80
2023/10/29 11:57:10;;;;;;;10.82;2.30;;;27.50;99.90;;;;;;4994741;28;20082;-80
2023/10/29 11:59:52;;;;;;;;;;;27.40;99.90;;;;;;4993370;28;20030;-79
2023/10/29 12:02:18;;;;;;;11.50;2.10;;;27.20;99.90;;;;;;4994421;28;20317;-79
2023/10/29 12:04:44;;;;;;;13.15;2.55;;;27.30;99.90;;;;;;4994069;28;20050;-79
2023/10/29 12:07:26;;;;;;;12.10;2.20;;;27.20;99.90;;;;;;4992668;28;20031;-79
2023/10/29 12:10:04;;;;;;;12.15;1.98;;;27.30;99.90;;;;;;4992750;28;20421;-79
2023/10/29 12:12:31;;;;;;;9.93;2.25;;;27.10;99.90;;;;;;4994045;28;20030;-80
2023/10/29 12:14:57;;;;;;;9.77;1.80;;;26.90;99.90;;;;;;4993950;28;20121;-78
2023/10/29 12:17:23;;;;;;;9.27;2.10;;;27.00;99.90;;;;;;4976477;28;20435;-80
2023/10/29 12:19:49;;;;;;;8.85;2.10;;;26.90;99.90;;;;;;4993886;28;20055;-79
2023/10/29 12:22:19;;;;;;;9.85;1.80;;;26.70;99.90;;;;;;4993736;28;20049;-79
2023/10/29 12:24:54;;;;;;;11.27;2.30;;;26.60;99.90;;;;;;4993959;28;20026;-77
2023/10/29 12:27:22;;;;;;;8.75;1.90;;;26.70;99.90;;;;;;4993989;28;20029;-76
2023/10/29 12:29:50;;;;;;;10.25;2.20;;;26.70;99.90;;;;;;4992670;28;20482;-76
2023/10/29 12:32:22;;;;;;;9.63;2.13;;;26.60;99.90;;;;;;4994427;28;20092;-77
2023/10/29 12:34:57;;;;;;;18.48;2.47;;;26.60;99.90;;;;;;4994205;28;20486;-78
2023/10/29 12:37:25;;;;;;;13.13;2.30;;;26.60;99.90;;;;;;4993383;28;20030;-74
2023/10/29 12:39:52;;;;;;;9.05;1.88;;;26.90;99.90;;;;;;4994324;28;20030;-72
2023/10/29 12:42:19;;;;;;;9.32;1.92;;;26.90;99.90;;;;;;4993545;28;20047;-74
2023/10/29 12:44:53;;;;;;;9.73;2.22;;;26.90;99.90;;;;;;4993982;28;20022;-74
2023/10/29 12:47:19;;;;;;;11.80;2.08;;;26.70;99.90;;;;;;4994083;28;20022;-73
2023/10/29 12:49:59;;;;;;;11.73;2.10;;;26.70;99.90;;;;;;4993644;28;20110;-74